Hopkins, South Carolina
Current Conditions -  °F | °C
As of 5:58 AM on Friday 19 Dec 2014 (Local Time) from KMMT Reporting Station
Clear Clear  
Wind Chill: 34°   Ceiling: Unl
Heat Index: 34°   Visibility: 10mi
Dew Point: 33°   Wind: 2mph
Humidity: 97%   Direction: 320°NW
Pressure: 30.09"   Gusts: NA
Location:  33.9°N, 80.88°W
Report Text: KMMT 191058Z AUTO 32002KT 10SM CLR 01/01 A3009 RMK AO2 SLP193 T00120008
Loading
Personal Weather Stations






























Interactive Weather Map New forecast layout! Learn more

10-Day Weather Forecast

Advertisements
Track Severe Weather on mobile